Time;durP1;ratioP1;P1;durP2;ratioP2;P2;SDS_P1;SDS_P2;PMS_P1;PMS_P2;Temp;Humidity;BMP_temperature;BMP_pressure;BME280_temperature;BME280_humidity;BME280_pressure;Samples;Min_cycle;Max_cycle;Signal;HPM_P1;HPM_P2
2021/12/10 00:00:25;;;;;;;143.20;50.40;;;;;;;-1.43;81.75;97448.28;105774;1316;25273;-75
2021/12/10 00:02:53;;;;;;;150.10;53.90;;;;;;;-1.43;81.48;97447.56;105739;1317;22584;-74
2021/12/10 00:05:26;;;;;;;197.90;69.00;;;;;;;-1.40;81.42;97431.23;105797;1317;22555;-74
2021/12/10 00:07:55;;;;;;;154.40;59.30;;;;;;;-1.39;81.55;97427.27;105745;1317;22675;-74
2021/12/10 00:10:34;;;;;;;137.90;53.70;;;;;;;-1.39;81.74;97427.45;105691;1317;22585;-74
2021/12/10 00:13:03;;;;;;;136.30;51.50;;;;;;;-1.42;81.93;97421.23;105776;1316;22718;-74
2021/12/10 00:15:33;;;;;;;141.20;51.70;;;;;;;-1.43;81.98;97414.31;105824;1315;22674;-74
2021/12/10 00:18:02;;;;;;;129.60;51.90;;;;;;;-1.44;81.94;97410.58;105766;1314;22805;-74
2021/12/10 00:20:32;;;;;;;119.20;48.00;;;;;;;-1.42;81.71;97407.25;105633;1317;22601;-74
2021/12/10 00:23:08;;;;;;;131.80;51.20;;;;;;;-1.41;81.74;97405.51;105699;1316;22614;-74
2021/12/10 00:25:39;;;;;;;139.60;51.70;;;;;;;-1.39;81.53;97414.64;105714;1319;22593;-74
2021/12/10 00:28:16;;;;;;;140.90;53.00;;;;;;;-1.35;81.36;97410.91;105678;1319;22583;-74
2021/12/10 00:32:01;;;;;;;149.50;58.30;;;;;;;-1.32;81.50;97414.55;105660;1318;23982;-74
2021/12/10 00:34:26;;;;;;;144.30;55.30;;;;;;;-1.33;81.93;97406.05;105632;1319;25524;-74
2021/12/10 00:36:56;;;;;;;157.30;63.50;;;;;;;-1.32;82.02;97403.94;105658;1318;25238;-74
2021/12/10 00:39:36;;;;;;;155.20;59.30;;;;;;;-1.31;82.04;97399.48;105641;1318;22572;-74
2021/12/10 00:42:08;;;;;;;144.10;57.30;;;;;;;-1.30;81.84;97402.33;105680;1319;24448;-75
2021/12/10 00:44:36;;;;;;;153.00;59.00;;;;;;;-1.28;81.71;97394.26;105645;1318;22591;-74
2021/12/10 00:47:05;;;;;;;148.00;60.10;;;;;;;-1.28;81.57;97384.34;105833;1318;23395;-79
2021/12/10 00:49:33;;;;;;;171.90;63.60;;;;;;;-1.26;81.38;97373.02;105908;1318;22608;-74
2021/12/10 00:52:02;;;;;;;146.70;57.40;;;;;;;-1.28;81.51;97360.60;105765;1318;22593;-73
2021/12/10 00:54:30;;;;;;;132.20;50.00;;;;;;;-1.30;81.74;97352.14;105636;1318;22649;-74
2021/12/10 00:56:57;;;;;;;145.60;55.90;;;;;;;-1.35;81.80;97354.20;105666;1318;22606;-73
2021/12/10 00:59:24;;;;;;;155.10;58.40;;;;;;;-1.37;81.79;97359.42;105733;1314;22566;-74
2021/12/10 01:01:52;;;;;;;176.40;68.30;;;;;;;-1.38;81.79;97364.41;105833;1316;25156;-73
2021/12/10 01:04:27;;;;;;;164.40;64.20;;;;;;;-1.38;81.59;97366.81;105850;1317;22733;-73
2021/12/10 01:06:58;;;;;;;139.60;53.80;;;;;;;-1.39;81.51;97366.50;105747;1316;22609;-73
2021/12/10 01:09:30;;;;;;;154.40;54.90;;;;;;;-1.35;81.49;97361.23;105765;1315;22575;-73
2021/12/10 01:12:09;;;;;;;152.40;59.00;;;;;;;-1.31;81.53;97363.27;105795;1317;22576;-73
2021/12/10 01:26:23;;;;;;;92.90;38.60;;;;;;;-1.39;81.53;97339.86;105701;1318;25367;-74
2021/12/10 01:28:55;;;;;;;107.70;44.90;;;;;;;-1.41;81.33;97344.19;105656;1319;25338;-74
2021/12/10 01:31:22;;;;;;;100.20;41.90;;;;;;;-1.38;81.35;97348.17;105657;1319;22643;-73
2021/12/10 01:33:52;;;;;;;97.30;40.40;;;;;;;-1.37;81.53;97354.13;105673;1317;22613;-73
2021/12/10 01:36:21;;;;;;;89.70;39.80;;;;;;;-1.36;81.88;97347.77;105725;1319;22582;-73
2021/12/10 01:38:52;;;;;;;92.90;40.20;;;;;;;-1.37;81.95;97346.45;105726;1319;22621;-74
2021/12/10 01:41:23;;;;;;;98.10;41.80;;;;;;;-1.39;81.93;97349.91;105667;1317;22646;-73
2021/12/10 01:43:52;;;;;;;94.60;40.40;;;;;;;-1.42;81.69;97345.60;105670;1319;22591;-74
2021/12/10 01:46:28;;;;;;;96.20;41.20;;;;;;;-1.45;81.49;97345.37;105741;1318;22589;-74
2021/12/10 01:49:04;;;;;;;91.20;39.70;;;;;;;-1.45;81.47;97348.79;105668;1319;22577;-74
2021/12/10 01:51:34;;;;;;;91.30;37.70;;;;;;;-1.41;81.33;97348.44;105647;1318;25655;-74
2021/12/10 01:54:07;;;;;;;89.00;39.20;;;;;;;-1.38;81.53;97344.94;105594;1318;23886;-74
2021/12/10 01:56:38;;;;;;;82.40;37.30;;;;;;;-1.38;81.82;97339.98;105659;1318;22600;-74
2021/12/10 01:59:09;;;;;;;88.90;39.80;;;;;;;-1.38;81.88;97343.58;105640;1317;22622;-73
2021/12/10 02:01:43;;;;;;;83.10;37.20;;;;;;;-1.39;81.76;97340.88;105767;1310;24246;-74
2021/12/10 02:04:14;;;;;;;85.40;36.70;;;;;;;-1.40;81.71;97336.80;105758;1317;22583;-74
2021/12/10 02:06:43;;;;;;;88.30;36.60;;;;;;;-1.40;81.65;97341.24;105731;1317;22635;-73
2021/12/10 02:09:11;;;;;;;82.30;35.20;;;;;;;-1.40;81.41;97338.88;105801;1317;22550;-73
2021/12/10 02:11:38;;;;;;;81.60;34.10;;;;;;;-1.36;81.35;97347.79;106040;1316;22582;-74
2021/12/10 02:14:05;;;;;;;77.50;35.00;;;;;;;-1.34;81.53;97352.82;105754;1316;22639;-73
2021/12/10 02:16:36;;;;;;;74.90;34.60;;;;;;;-1.34;81.84;97351.63;105767;1317;22601;-73
2021/12/10 02:19:06;;;;;;;74.90;32.90;;;;;;;-1.37;81.83;97348.83;105784;1317;22575;-73
2021/12/10 02:21:34;;;;;;;76.90;36.50;;;;;;;-1.38;81.78;97345.27;105793;1314;22581;-73
2021/12/10 02:24:03;;;;;;;73.90;34.00;;;;;;;-1.41;81.74;97344.35;105772;1314;22584;-73
2021/12/10 02:26:35;;;;;;;84.30;35.50;;;;;;;-1.42;81.41;97346.95;105779;1317;22596;-73
2021/12/10 02:29:03;;;;;;;85.60;35.30;;;;;;;-1.43;81.32;97348.05;105803;1316;22582;-73
2021/12/10 02:31:31;;;;;;;85.10;34.80;;;;;;;-1.39;81.30;97345.64;105776;1317;24224;-73
2021/12/10 02:33:58;;;;;;;81.10;35.20;;;;;;;-1.35;81.51;97345.85;105789;1317;24486;-74
2021/12/10 02:36:26;;;;;;;79.10;34.30;;;;;;;-1.35;81.60;97351.68;105865;1317;23239;-73
2021/12/10 02:38:54;;;;;;;81.10;36.20;;;;;;;-1.36;81.83;97348.97;105789;1315;22584;-74
2021/12/10 02:41:26;;;;;;;82.70;36.50;;;;;;;-1.38;81.66;97343.89;105739;1317;22604;-72
2021/12/10 02:43:54;;;;;;;75.70;36.90;;;;;;;-1.38;81.33;97340.66;105873;1317;22577;-74
2021/12/10 02:46:22;;;;;;;78.70;36.40;;;;;;;-1.43;81.28;97331.46;105846;1316;22585;-74
2021/12/10 02:48:49;;;;;;;78.00;36.60;;;;;;;-1.44;81.28;97327.94;105794;1316;26368;-74
2021/12/10 02:51:17;;;;;;;78.20;34.50;;;;;;;-1.40;81.16;97332.20;105724;1314;22582;-74
2021/12/10 02:53:45;;;;;;;80.90;36.30;;;;;;;-1.39;81.32;97333.86;105766;1316;22582;-74
2021/12/10 02:56:17;;;;;;;74.70;33.50;;;;;;;-1.38;81.58;97333.50;105659;1319;22973;-74
2021/12/10 02:58:47;;;;;;;80.20;35.30;;;;;;;-1.38;81.70;97327.02;105605;1319;22597;-74
2021/12/10 03:01:24;;;;;;;78.70;34.30;;;;;;;-1.39;81.66;97304.15;105629;1320;22584;-75
2021/12/10 03:03:51;;;;;;;71.50;33.40;;;;;;;-1.41;81.55;97300.98;105735;1314;22609;-74
2021/12/10 03:06:19;;;;;;;74.10;33.50;;;;;;;-1.41;81.56;97303.21;105803;1316;22519;-74
2021/12/10 03:08:50;;;;;;;84.90;36.20;;;;;;;-1.39;81.38;97302.64;105740;1316;24209;-74
2021/12/10 03:11:21;;;;;;;87.60;35.80;;;;;;;-1.34;81.22;97303.25;105787;1317;22572;-75
2021/12/10 03:13:48;;;;;;;80.40;36.90;;;;;;;-1.29;81.36;97299.00;105784;1314;22912;-75
2021/12/10 03:16:16;;;;;;;76.00;33.20;;;;;;;-1.28;81.48;97301.67;105768;1317;24262;-74
2021/12/10 03:18:43;;;;;;;80.40;35.60;;;;;;;-1.31;81.75;97292.05;105711;1313;22599;-75
2021/12/10 03:21:12;;;;;;;83.40;35.80;;;;;;;-1.32;81.65;97288.69;105759;1316;22707;-74
2021/12/10 03:23:42;;;;;;;97.40;39.70;;;;;;;-1.33;81.46;97285.98;105778;1315;23135;-74
2021/12/10 03:26:11;;;;;;;107.80;43.40;;;;;;;-1.35;81.33;97285.90;105769;1317;22573;-75
2021/12/10 03:28:40;;;;;;;108.20;42.30;;;;;;;-1.35;81.11;97282.84;106209;1316;22591;-74
2021/12/10 03:31:10;;;;;;;96.30;39.70;;;;;;;-1.32;81.09;97286.11;105766;1315;22590;-74
2021/12/10 03:33:41;;;;;;;92.80;39.50;;;;;;;-1.31;81.38;97285.73;105779;1317;22582;-74
2021/12/10 03:36:10;;;;;;;98.90;40.70;;;;;;;-1.31;81.57;97289.50;106006;1317;22567;-75
2021/12/10 03:38:39;;;;;;;105.80;43.20;;;;;;;-1.34;81.63;97287.71;106028;1314;22645;-75
2021/12/10 03:41:09;;;;;;;109.20;42.50;;;;;;;-1.36;81.51;97276.56;105992;1316;22569;-75
2021/12/10 03:43:36;;;;;;;114.20;43.30;;;;;;;-1.41;81.35;97278.95;106008;1316;23663;-75
2021/12/10 03:46:05;;;;;;;109.90;42.50;;;;;;;-1.43;81.31;97279.55;105993;1316;22574;-74
2021/12/10 03:48:36;;;;;;;107.40;43.40;;;;;;;-1.44;81.11;97279.08;106024;1314;22582;-75
2021/12/10 03:51:07;;;;;;;110.70;44.50;;;;;;;-1.39;80.96;97279.73;105990;1311;22558;-74
2021/12/10 03:53:35;;;;;;;106.20;43.40;;;;;;;-1.35;81.05;97284.88;106009;1317;22617;-74
2021/12/10 03:56:11;;;;;;;106.70;42.60;;;;;;;-1.33;81.38;97288.35;106027;1316;22645;-74
2021/12/10 03:58:39;;;;;;;100.70;39.80;;;;;;;-1.34;81.50;97292.69;105948;1320;22568;-75
2021/12/10 04:01:08;;;;;;;93.20;40.60;;;;;;;-1.36;81.44;97292.79;106017;1318;22688;-73
2021/12/10 04:03:35;;;;;;;88.80;38.50;;;;;;;-1.38;81.26;97295.23;106031;1314;22575;-74
2021/12/10 04:06:03;;;;;;;91.70;41.40;;;;;;;-1.40;81.13;97289.84;106040;1316;22590;-74
2021/12/10 04:08:31;;;;;;;92.10;41.10;;;;;;;-1.40;80.97;97288.48;105992;1314;22642;-74
2021/12/10 04:10:59;;;;;;;109.20;42.70;;;;;;;-1.42;80.91;97287.34;105982;1316;24444;-74
2021/12/10 04:13:27;;;;;;;103.80;42.10;;;;;;;-1.38;80.83;97285.17;106014;1317;22864;-74
2021/12/10 04:15:54;;;;;;;101.90;43.00;;;;;;;-1.35;81.11;97292.42;106033;1316;22635;-73
2021/12/10 04:18:21;;;;;;;95.10;39.80;;;;;;;-1.36;81.47;97293.64;106028;1316;22601;-73
2021/12/10 04:20:49;;;;;;;95.00;40.90;;;;;;;-1.40;81.54;97297.85;106016;1317;25436;-74
2021/12/10 04:23:18;;;;;;;95.40;41.00;;;;;;;-1.42;81.37;97298.45;106011;1317;22614;-74
2021/12/10 04:25:46;;;;;;;101.20;42.10;;;;;;;-1.44;81.31;97294.62;105978;1316;22706;-73
2021/12/10 04:28:16;;;;;;;102.80;41.60;;;;;;;-1.46;81.17;97297.79;106018;1316;22556;-73
2021/12/10 04:30:45;;;;;;;108.10;41.90;;;;;;;-1.47;80.90;97300.20;105998;1311;22578;-74
2021/12/10 04:33:15;;;;;;;107.60;43.30;;;;;;;-1.43;80.90;97304.85;105975;1317;22573;-74
2021/12/10 04:35:46;;;;;;;98.60;42.10;;;;;;;-1.41;81.18;97308.64;106003;1317;22557;-74
2021/12/10 04:38:14;;;;;;;102.20;42.80;;;;;;;-1.39;81.39;97316.13;105991;1314;22575;-73
2021/12/10 04:40:46;;;;;;;104.90;44.00;;;;;;;-1.41;81.49;97318.40;106004;1311;22585;-74
2021/12/10 04:43:18;;;;;;;114.70;44.90;;;;;;;-1.43;81.38;97319.48;106010;1317;24637;-73
2021/12/10 04:45:46;;;;;;;107.60;46.40;;;;;;;-1.45;81.18;97314.47;106011;1316;22567;-73
2021/12/10 04:48:14;;;;;;;108.00;46.60;;;;;;;-1.46;81.06;97310.74;106016;1316;22587;-74
2021/12/10 04:50:41;;;;;;;115.90;46.40;;;;;;;-1.46;80.99;97311.94;106002;1316;22642;-74
2021/12/10 04:53:10;;;;;;;120.40;48.90;;;;;;;-1.42;80.95;97308.54;105811;1316;22561;-74
2021/12/10 04:55:38;;;;;;;122.70;49.90;;;;;;;-1.39;81.16;97312.54;105620;1316;22627;-73
2021/12/10 04:58:06;;;;;;;107.60;45.90;;;;;;;-1.38;81.67;97310.08;105733;1316;22583;-74
2021/12/10 05:00:48;;;;;;;113.00;45.50;;;;;;;-1.39;81.75;97317.83;105773;1317;22578;-74
2021/12/10 05:03:16;;;;;;;114.40;44.10;;;;;;;-1.42;81.69;97316.94;105816;1310;22579;-74
2021/12/10 05:05:44;;;;;;;111.40;45.80;;;;;;;-1.44;81.61;97320.42;105776;1314;23337;-74
2021/12/10 05:08:13;;;;;;;103.30;44.80;;;;;;;-1.46;81.45;97324.25;105737;1314;24214;-74
2021/12/10 05:10:40;;;;;;;118.70;45.40;;;;;;;-1.48;81.32;97319.02;105751;1316;22644;-74
2021/12/10 05:13:07;;;;;;;124.80;49.00;;;;;;;-1.44;81.28;97319.91;105777;1316;22779;-73
2021/12/10 05:15:37;;;;;;;118.20;49.60;;;;;;;-1.41;81.56;97323.36;105760;1317;22607;-74
2021/12/10 05:18:08;;;;;;;141.20;63.30;;;;;;;-1.43;81.82;97316.97;105765;1314;22619;-75
2021/12/10 05:20:38;;;;;;;122.10;51.80;;;;;;;-1.49;81.87;97320.41;105775;1316;25405;-73
2021/12/10 05:23:05;;;;;;;109.50;46.90;;;;;;;-1.52;81.89;97319.67;105760;1314;22617;-74
2021/12/10 05:25:32;;;;;;;97.40;42.80;;;;;;;-1.56;81.47;97318.48;105704;1315;22646;-74
2021/12/10 05:28:00;;;;;;;96.40;37.80;;;;;;;-1.62;81.36;97320.58;105778;1316;22638;-74
2021/12/10 05:30:29;;;;;;;87.70;30.70;;;;;;;-1.69;81.45;97317.41;105793;1317;22639;-74
2021/12/10 05:33:00;;;;;;;100.90;40.10;;;;;;;-1.67;81.47;97310.86;105767;1316;22585;-74
2021/12/10 05:35:32;;;;;;;98.30;37.70;;;;;;;-1.69;81.93;97313.00;105817;1316;22592;-74
2021/12/10 05:38:00;;;;;;;85.20;36.60;;;;;;;-1.68;82.36;97313.44;105764;1316;22575;-74
2021/12/10 05:40:27;;;;;;;84.90;35.20;;;;;;;-1.70;82.66;97315.06;105745;1314;22726;-74
2021/12/10 05:42:54;;;;;;;78.90;32.60;;;;;;;-1.74;82.71;97314.04;105810;1315;22582;-74
2021/12/10 05:45:23;;;;;;;92.90;41.40;;;;;;;-1.74;82.46;97317.77;105817;1315;22559;-74
2021/12/10 05:47:51;;;;;;;93.00;36.30;;;;;;;-1.79;82.36;97317.64;105790;1316;24550;-75
2021/12/10 05:50:22;;;;;;;92.20;37.10;;;;;;;-1.78;82.52;97317.23;105737;1315;22570;-75
2021/12/10 05:52:49;;;;;;;74.30;29.10;;;;;;;-1.76;82.67;97317.16;105739;1314;25367;-74
2021/12/10 05:55:17;;;;;;;72.00;28.60;;;;;;;-1.72;83.14;97316.33;105770;1317;25469;-73
2021/12/10 05:57:44;;;;;;;60.70;26.00;;;;;;;-1.72;83.51;97313.09;105759;1317;24003;-74
2021/12/10 06:00:18;;;;;;;67.80;29.00;;;;;;;-1.80;83.52;97313.23;105755;1318;22597;-74
2021/12/10 06:02:46;;;;;;;56.80;23.90;;;;;;;-1.82;83.32;97311.78;105806;1317;27574;-74
2021/12/10 06:05:14;;;;;;;74.10;33.20;;;;;;;-1.81;83.14;97308.16;105720;1314;25264;-74
2021/12/10 06:07:41;;;;;;;64.20;26.40;;;;;;;-1.80;82.97;97301.10;105789;1314;22595;-75
2021/12/10 06:10:11;;;;;;;68.10;31.70;;;;;;;-1.75;83.00;97306.55;105845;1316;22624;-75
2021/12/10 06:12:39;;;;;;;70.40;31.20;;;;;;;-1.74;83.21;97308.23;105830;1317;22659;-75
2021/12/10 06:15:07;;;;;;;72.70;31.00;;;;;;;-1.73;83.31;97307.36;105771;1315;22611;-75
2021/12/10 06:17:35;;;;;;;64.80;28.90;;;;;;;-1.69;83.78;97309.23;106341;1316;25251;-74
2021/12/10 06:20:08;;;;;;;68.50;35.50;;;;;;;-1.73;83.71;97310.39;105768;1317;23280;-74
2021/12/10 06:22:36;;;;;;;70.10;30.90;;;;;;;-1.71;83.51;97307.98;105777;1315;22697;-73
2021/12/10 06:25:05;;;;;;;62.10;29.50;;;;;;;-1.71;83.31;97308.77;105747;1317;23174;-73
2021/12/10 06:27:32;;;;;;;60.20;27.50;;;;;;;-1.67;83.07;97303.50;105775;1316;22599;-74
2021/12/10 06:30:01;;;;;;;59.60;26.90;;;;;;;-1.58;83.09;97301.98;105791;1314;22752;-74
2021/12/10 06:32:28;;;;;;;53.20;26.00;;;;;;;-1.54;83.00;97301.14;105774;1317;22582;-74
2021/12/10 06:34:55;;;;;;;50.40;23.80;;;;;;;-1.47;83.42;97305.00;105786;1317;26464;-74
2021/12/10 06:37:22;;;;;;;47.20;22.70;;;;;;;-1.46;83.51;97303.23;105818;1317;24827;-74
2021/12/10 06:39:50;;;;;;;45.60;21.80;;;;;;;-1.46;83.55;97305.79;105781;1315;22726;-75
2021/12/10 06:42:17;;;;;;;41.90;20.20;;;;;;;-1.43;83.19;97313.05;105636;1317;22574;-75
2021/12/10 06:44:44;;;;;;;46.80;23.00;;;;;;;-1.45;83.05;97315.84;105803;1317;25322;-74
2021/12/10 06:47:10;;;;;;;45.30;20.80;;;;;;;-1.42;82.84;97319.65;105815;1316;22608;-74
2021/12/10 06:49:37;;;;;;;47.30;21.80;;;;;;;-1.36;82.73;97325.39;105790;1317;25419;-74
2021/12/10 06:52:05;;;;;;;49.20;22.10;;;;;;;-1.31;83.01;97324.84;105761;1317;22576;-75
2021/12/10 06:54:32;;;;;;;39.40;19.10;;;;;;;-1.30;83.16;97322.77;105776;1316;22694;-77
2021/12/10 06:56:59;;;;;;;42.80;19.70;;;;;;;-1.30;83.29;97333.35;105779;1314;22678;-76
2021/12/10 06:59:27;;;;;;;38.00;18.70;;;;;;;-1.29;83.21;97338.25;105722;1318;22635;-75
2021/12/10 07:01:54;;;;;;;46.10;22.30;;;;;;;-1.30;82.99;97343.10;105740;1317;22593;-76
2021/12/10 07:04:21;;;;;;;49.80;22.10;;;;;;;-1.32;82.76;97343.65;105592;1315;253795;-76
2021/12/10 07:06:49;;;;;;;57.60;25.00;;;;;;;-1.31;82.81;97348.23;105775;1316;22586;-76
2021/12/10 07:09:22;;;;;;;46.00;22.20;;;;;;;-1.23;82.65;97348.80;105726;1316;22621;-77
2021/12/10 07:11:53;;;;;;;46.40;21.50;;;;;;;-1.17;82.73;97343.58;105798;1317;22586;-75
2021/12/10 07:14:20;;;;;;;42.40;20.10;;;;;;;-1.11;82.90;97346.97;105806;1314;22579;-76
2021/12/10 07:16:48;;;;;;;50.90;25.00;;;;;;;-1.08;83.04;97344.80;105813;1314;22582;-76
2021/12/10 07:19:17;;;;;;;69.90;31.90;;;;;;;-1.05;83.12;97346.92;105772;1316;22631;-77
2021/12/10 07:21:44;;;;;;;97.80;50.40;;;;;;;-1.04;82.64;97346.52;105823;1316;22586;-74
2021/12/10 07:24:15;;;;;;;99.60;41.70;;;;;;;-1.03;82.51;97344.95;105761;1314;22595;-76
2021/12/10 07:26:43;;;;;;;85.10;35.70;;;;;;;-1.03;82.38;97344.95;105665;1318;26410;-76
2021/12/10 07:29:11;;;;;;;107.00;44.70;;;;;;;-1.02;82.29;97342.52;105701;1316;22600;-74
2021/12/10 07:31:40;;;;;;;108.00;42.90;;;;;;;-0.97;82.13;97342.48;105843;1317;22581;-75
2021/12/10 07:34:07;;;;;;;95.70;38.90;;;;;;;-0.96;82.32;97340.38;105769;1317;24280;-75
2021/12/10 07:36:35;;;;;;;77.80;31.10;;;;;;;-0.99;82.46;97338.14;105816;1317;22713;-75
2021/12/10 07:39:04;;;;;;;85.00;34.30;;;;;;;-1.06;82.34;97339.08;105806;1317;22725;-75
2021/12/10 07:41:32;;;;;;;146.80;51.30;;;;;;;-1.08;82.18;97340.38;105760;1317;25424;-77
2021/12/10 07:43:59;;;;;;;133.00;49.40;;;;;;;-1.12;82.02;97342.23;105763;1314;22590;-72
2021/12/10 07:46:28;;;;;;;118.30;51.30;;;;;;;-1.17;81.78;97338.98;105759;1317;22586;-72
2021/12/10 07:48:56;;;;;;;116.50;48.10;;;;;;;-1.21;81.64;97338.29;106053;1317;22722;-73
2021/12/10 07:51:28;;;;;;;106.90;45.80;;;;;;;-1.25;81.33;97339.31;105947;1317;22579;-72
2021/12/10 07:53:57;;;;;;;104.40;44.20;;;;;;;-1.29;81.39;97341.52;105762;1317;22587;-73
2021/12/10 07:56:27;;;;;;;103.20;42.90;;;;;;;-1.27;81.32;97344.34;105769;1316;25521;-73
2021/12/10 07:58:55;;;;;;;93.50;40.50;;;;;;;-1.27;81.37;97338.01;105725;1317;22587;-74
2021/12/10 08:01:27;;;;;;;78.00;34.30;;;;;;;-1.27;81.58;97331.69;105688;1319;24524;-74
2021/12/10 08:03:56;;;;;;;86.50;34.40;;;;;;;-1.31;81.48;97332.72;105631;1314;22723;-74
2021/12/10 08:06:26;;;;;;;80.80;35.30;;;;;;;-1.36;81.31;97328.31;105756;1316;22584;-75
2021/12/10 08:08:53;;;;;;;77.70;33.10;;;;;;;-1.42;80.89;97328.20;105772;1315;22624;-74
2021/12/10 08:11:21;;;;;;;73.60;32.70;;;;;;;-1.48;80.78;97332.69;105749;1315;26680;-74
2021/12/10 08:13:48;;;;;;;66.10;31.40;;;;;;;-1.51;80.68;97332.09;105772;1315;22736;-73
2021/12/10 08:16:16;;;;;;;60.20;26.70;;;;;;;-1.53;80.53;97327.05;105768;1316;22673;-73
2021/12/10 08:18:45;;;;;;;57.80;25.10;;;;;;;-1.54;80.25;97322.84;105759;1316;22731;-72
2021/12/10 08:21:12;;;;;;;50.20;23.80;;;;;;;-1.50;80.33;97313.95;105790;1317;22668;-73
2021/12/10 08:23:39;;;;;;;51.50;25.70;;;;;;;-1.45;80.71;97314.48;105750;1314;22579;-74
2021/12/10 08:26:07;;;;;;;80.10;37.40;;;;;;;-1.43;81.13;97322.27;105774;1318;22701;-72
2021/12/10 08:28:34;;;;;;;73.10;33.70;;;;;;;-1.43;81.20;97333.67;105795;1316;22582;-73
2021/12/10 08:31:03;;;;;;;56.50;26.20;;;;;;;-1.41;81.19;97342.48;105759;1310;22708;-73
2021/12/10 08:33:30;;;;;;;51.60;25.20;;;;;;;-1.36;81.00;97351.70;106131;1314;22636;-74
2021/12/10 08:36:01;;;;;;;65.90;30.20;;;;;;;-1.31;80.79;97348.73;105749;1317;22593;-73
2021/12/10 08:38:30;;;;;;;61.50;30.20;;;;;;;-1.25;80.54;97350.06;105804;1316;22578;-75
2021/12/10 08:41:05;;;;;;;52.20;27.40;;;;;;;-1.19;80.64;97344.19;106026;1317;22562;-74
2021/12/10 08:43:32;;;;;;;52.90;27.10;;;;;;;-1.06;80.54;97352.27;106036;1317;22590;-74
2021/12/10 08:46:00;;;;;;;47.70;26.00;;;;;;;-0.97;80.61;97349.86;106022;1311;22613;-74
2021/12/10 08:48:30;;;;;;;48.30;23.90;;;;;;;-0.91;81.02;97353.70;106040;1316;22639;-75
2021/12/10 08:51:01;;;;;;;54.10;25.50;;;;;;;-0.88;81.02;97352.55;106010;1314;22635;-74
2021/12/10 08:53:28;;;;;;;49.80;25.30;;;;;;;-0.83;80.88;97348.77;106008;1316;25530;-75
2021/12/10 08:55:58;;;;;;;59.10;27.50;;;;;;;-0.78;80.72;97343.08;106014;1314;22618;-74
2021/12/10 08:58:26;;;;;;;66.50;29.70;;;;;;;-0.72;80.43;97342.48;105988;1314;22652;-74
2021/12/10 09:01:00;;;;;;;67.50;32.00;;;;;;;-0.69;80.35;97341.52;105972;1318;22597;-74
2021/12/10 09:03:28;;;;;;;69.60;33.50;;;;;;;-0.62;80.31;97339.72;105975;1317;22563;-74
2021/12/10 09:05:55;;;;;;;68.90;31.40;;;;;;;-0.52;80.12;97344.58;105764;1318;22742;-74
2021/12/10 09:08:22;;;;;;;57.30;27.70;;;;;;;-0.45;80.40;97340.71;105794;1317;22578;-75
2021/12/10 09:10:49;;;;;;;54.90;25.90;;;;;;;-0.40;80.68;97342.86;105735;1316;22600;-75
2021/12/10 09:13:20;;;;;;;62.20;29.40;;;;;;;-0.38;80.86;97342.80;105748;1316;22634;-75
2021/12/10 09:15:55;;;;;;;64.10;28.80;;;;;;;-0.33;80.59;97346.20;105839;1317;22591;-75
2021/12/10 09:18:23;;;;;;;59.70;29.10;;;;;;;-0.31;80.53;97342.18;105813;1317;22596;-75
2021/12/10 09:20:55;;;;;;;63.30;32.00;;;;;;;-0.29;80.21;97338.99;105729;1316;22706;-75
2021/12/10 09:23:26;;;;;;;63.40;30.40;;;;;;;-0.26;79.94;97337.34;105824;1316;22549;-75
2021/12/10 09:25:56;;;;;;;65.20;32.00;;;;;;;-0.26;79.91;97333.42;105807;1320;23024;-83
2021/12/10 09:28:25;;;;;;;70.20;35.10;;;;;;;-0.18;80.08;97333.05;105727;1316;22661;-76
2021/12/10 09:30:55;;;;;;;79.70;34.90;;;;;;;-0.10;80.30;97329.48;105834;1316;22582;-77
2021/12/10 09:33:22;;;;;;;78.70;34.00;;;;;;;-0.03;80.55;97328.80;106186;1314;23417;-77
2021/12/10 09:35:50;;;;;;;70.70;34.90;;;;;;;0.03;80.55;97323.77;106975;1317;22988;-75
2021/12/10 09:38:20;;;;;;;71.00;35.30;;;;;;;0.09;80.41;97318.88;107000;1316;22436;-75
2021/12/10 09:40:52;;;;;;;75.30;35.40;;;;;;;0.14;80.33;97316.09;107005;1316;22416;-75
2021/12/10 09:43:20;;;;;;;68.00;33.80;;;;;;;0.19;80.25;97314.64;106643;1316;22568;-74
2021/12/10 09:45:52;;;;;;;66.70;32.90;;;;;;;0.26;80.11;97312.47;105985;1317;22699;-77
2021/12/10 09:48:21;;;;;;;69.40;34.10;;;;;;;0.30;79.98;97309.33;105949;1317;22712;-76
2021/12/10 09:51:03;;;;;;;67.70;34.60;;;;;;;0.35;79.79;97306.23;106010;1317;22602;-75
2021/12/10 09:53:32;;;;;;;62.20;31.30;;;;;;;0.46;79.33;97302.50;106038;1317;22506;-76
2021/12/10 09:56:00;;;;;;;66.20;33.20;;;;;;;0.51;79.70;97303.64;106086;1317;23039;-75
2021/12/10 09:58:28;;;;;;;64.60;30.80;;;;;;;0.54;79.73;97303.11;106076;1316;22662;-75
2021/12/10 10:01:06;;;;;;;77.30;40.00;;;;;;;0.54;79.33;97300.20;106079;1317;24911;-75
2021/12/10 10:03:39;;;;;;;111.60;59.50;;;;;;;0.49;78.51;97299.07;106096;1318;22653;-76
2021/12/10 10:06:08;;;;;;;;;;;;;;;0.47;78.51;97297.29;105917;1319;22613;-76
2021/12/10 10:08:36;;;;;;;68.60;37.50;;;;;;;0.46;78.70;97302.98;106142;1316;24355;-77
2021/12/10 10:11:17;;;;;;;60.10;27.70;;;;;;;0.45;77.98;97298.78;106157;1316;22562;-77
2021/12/10 10:13:48;;;;;;;55.60;27.20;;;;;;;0.42;77.44;97298.72;106139;1316;22581;-77
2021/12/10 10:16:16;;;;;;;62.60;30.00;;;;;;;0.44;77.73;97296.26;106128;1316;22563;-77
2021/12/10 10:18:44;;;;;;;75.90;33.50;;;;;;;0.48;77.92;97293.80;106149;1316;23045;-74
2021/12/10 10:21:17;;;;;;;69.10;31.80;;;;;;;0.51;78.51;97286.33;106130;1317;22584;-76
2021/12/10 10:23:45;;;;;;;55.80;27.00;;;;;;;0.49;78.41;97280.58;106133;1315;24212;-76
2021/12/10 10:26:17;;;;;;;63.50;33.10;;;;;;;0.41;78.14;97275.14;106023;1320;22890;-75
2021/12/10 10:28:45;;;;;;;75.40;35.80;;;;;;;0.37;77.99;97276.65;106059;1318;22588;-77
2021/12/10 10:31:18;;;;;;;73.80;35.80;;;;;;;0.34;77.78;97277.16;106114;1316;22657;-77
2021/12/10 10:33:49;;;;;;;70.60;33.60;;;;;;;0.36;77.89;97278.40;106136;1314;22678;-76
2021/12/10 10:36:19;;;;;;;69.00;34.60;;;;;;;0.34;77.53;97279.39;106160;1317;22584;-76
2021/12/10 10:38:51;;;;;;;67.60;32.40;;;;;;;0.33;77.54;97280.78;106113;1317;22661;-76
2021/12/10 10:41:23;;;;;;;67.80;34.20;;;;;;;0.34;77.58;97276.30;106145;1316;22549;-76
2021/12/10 10:43:50;;;;;;;71.40;34.00;;;;;;;0.34;77.48;97276.46;106155;1316;26038;-76
2021/12/10 10:46:17;;;;;;;55.30;27.60;;;;;;;0.41;77.60;97282.52;106126;1314;24409;-76
2021/12/10 10:48:48;;;;;;;56.00;30.30;;;;;;;0.44;77.93;97284.74;106130;1317;22587;-76
2021/12/10 10:51:23;;;;;;;56.80;27.90;;;;;;;0.50;78.33;97286.70;106125;1317;23988;-76
2021/12/10 10:53:53;;;;;;;53.10;27.50;;;;;;;0.54;78.27;97289.44;106160;1314;22640;-77
2021/12/10 10:56:31;;;;;;;53.30;25.50;;;;;;;0.56;77.84;97296.52;106137;1317;22587;-76
2021/12/10 10:59:03;;;;;;;57.90;28.70;;;;;;;0.57;77.61;97295.64;106137;1314;25424;-76
2021/12/10 11:01:48;;;;;;;104.10;44.90;;;;;;;0.61;77.75;97297.52;106104;1317;25894;-76
2021/12/10 11:04:27;;;;;;;87.00;39.00;;;;;;;0.64;77.69;97295.45;106034;1317;22532;-75
2021/12/10 11:07:15;;;;;;;128.20;53.60;;;;;;;0.66;77.15;97302.38;106101;1317;22574;-76
2021/12/10 11:09:49;;;;;;;116.50;44.40;;;;;;;0.68;77.42;97306.59;106153;1316;22599;-76
2021/12/10 11:12:26;;;;;;;53.70;26.00;;;;;;;0.76;77.49;97307.77;105964;1317;22982;-74
2021/12/10 11:14:56;;;;;;;53.70;26.80;;;;;;;0.81;77.84;97304.80;106151;1317;22574;-76
2021/12/10 11:17:37;;;;;;;82.40;39.20;;;;;;;0.83;78.16;97307.95;106129;1317;22571;-76
2021/12/10 11:20:13;;;;;;;77.10;36.80;;;;;;;0.80;77.89;97309.30;106132;1317;22586;-76
2021/12/10 11:23:00;;;;;;;67.30;32.70;;;;;;;0.83;77.79;97306.92;106152;1316;25659;-76
2021/12/10 11:25:49;;;;;;;73.50;33.70;;;;;;;0.84;77.61;97305.98;106049;1317;22578;-76
2021/12/10 11:28:20;;;;;;;71.90;32.50;;;;;;;0.86;77.38;97304.73;105998;1320;25211;-76
2021/12/10 11:31:03;;;;;;;62.10;31.40;;;;;;;0.86;77.13;97302.51;106059;1316;22532;-76
2021/12/10 11:33:41;;;;;;;66.50;32.90;;;;;;;0.87;76.91;97301.23;106108;1316;22589;-76